Time;durP1;ratioP1;P1;durP2;ratioP2;P2;SDS_P1;SDS_P2;PMS_P1;PMS_P2;Temp;Humidity;BMP_temperature;BMP_pressure;BME280_temperature;BME280_humidity;BME280_pressure;Samples;Min_cycle;Max_cycle;Signal;HPM_P1;HPM_P2
2023/01/02 00:01:23;;;;;;;6.95;3.28;;;9.20;99.90;;;;;;4990094;28;20049;-80
2023/01/02 00:03:49;;;;;;;6.22;2.17;;;9.20;99.90;;;;;;4992530;28;20043;-80
2023/01/02 00:06:16;;;;;;;6.03;2.85;;;9.20;99.90;;;;;;4974607;28;20418;-79
2023/01/02 00:08:42;;;;;;;4.05;3.08;;;9.20;99.90;;;;;;5014565;28;20039;-80
2023/01/02 00:11:08;;;;;;;5.03;2.95;;;9.50;99.90;;;;;;5014852;28;20083;-80
2023/01/02 00:13:34;;;;;;;3.33;2.55;;;9.30;99.90;;;;;;4992409;28;20034;-80
2023/01/02 00:15:59;;;;;;;5.10;2.92;;;9.30;99.90;;;;;;4965118;28;20034;-81
2023/01/02 00:18:25;;;;;;;4.07;2.78;;;9.30;99.90;;;;;;4992162;28;20034;-79
2023/01/02 00:20:50;;;;;;;4.53;3.28;;;9.50;99.90;;;;;;5013193;28;20101;-80
2023/01/02 00:23:16;;;;;;;4.47;3.53;;;9.40;99.90;;;;;;4982022;28;20045;-80
2023/01/02 00:25:42;;;;;;;5.53;3.50;;;9.40;99.90;;;;;;4991926;28;20038;-81
2023/01/02 00:28:07;;;;;;;5.70;3.55;;;8.30;99.90;;;;;;5008355;28;20093;-80
2023/01/02 00:30:35;;;;;;;3.90;3.50;;;9.40;99.90;;;;;;4975704;28;20121;-81
2023/01/02 00:33:01;;;;;;;5.82;3.60;;;9.40;99.90;;;;;;4974406;28;20042;-79
2023/01/02 00:35:27;;;;;;;6.15;4.60;;;9.50;99.90;;;;;;5008043;28;20043;-81
2023/01/02 00:37:52;;;;;;;9.50;4.10;;;9.50;99.90;;;;;;4975012;28;20668;-80
2023/01/02 00:40:18;;;;;;;6.95;4.45;;;10.50;99.90;;;;;;5025471;28;20049;-80
2023/01/02 00:42:44;;;;;;;5.65;4.20;;;9.50;99.90;;;;;;4986082;28;20046;-80
2023/01/02 00:45:10;;;;;;;7.75;3.80;;;10.30;99.90;;;;;;5004012;28;20097;-80
2023/01/02 00:47:36;;;;;;;6.32;4.05;;;9.60;99.90;;;;;;4989765;28;20049;-80
2023/01/02 00:50:02;;;;;;;7.25;3.83;;;10.80;99.90;;;;;;5003964;28;20048;-81
2023/01/02 00:52:27;;;;;;;3.67;3.33;;;9.70;99.90;;;;;;4989104;28;20128;-81
2023/01/02 00:54:53;;;;;;;5.45;3.65;;;9.70;99.90;;;;;;4988999;28;20042;-80
2023/01/02 00:57:18;;;;;;;4.80;3.03;;;10.30;99.90;;;;;;4989811;28;20571;-80
2023/01/02 00:59:44;;;;;;;5.65;4.03;;;10.60;99.90;;;;;;4976550;28;20046;-80
2023/01/02 01:02:10;;;;;;;5.30;3.95;;;9.80;99.90;;;;;;4988642;28;20049;-81
2023/01/02 01:04:35;;;;;;;3.25;2.95;;;9.90;99.90;;;;;;4989874;28;20046;-80
2023/01/02 01:07:02;;;;;;;3.53;2.78;;;9.80;99.90;;;;;;4975630;28;20444;-81
2023/01/02 01:09:27;;;;;;;4.57;2.80;;;9.90;99.90;;;;;;4989288;28;20101;-81
2023/01/02 01:11:56;;;;;;;4.35;2.67;;;10.80;99.90;;;;;;4987256;28;20112;-81
2023/01/02 01:14:22;;;;;;;3.75;2.97;;;9.90;99.90;;;;;;5005704;28;20489;-81
2023/01/02 01:16:48;;;;;;;4.18;2.88;;;9.90;99.90;;;;;;4988646;28;20104;-80
2023/01/02 01:19:14;;;;;;;2.78;2.58;;;10.10;99.90;;;;;;5005923;28;20038;-81
2023/01/02 01:21:40;;;;;;;4.13;2.83;;;9.90;99.90;;;;;;4975055;28;20046;-81
2023/01/02 01:24:06;;;;;;;4.03;3.22;;;10.00;99.90;;;;;;4990551;28;20053;-81
2023/01/02 01:26:31;;;;;;;2.92;2.53;;;10.80;99.90;;;;;;4987743;28;20054;-80
2023/01/02 01:28:57;;;;;;;3.70;3.10;;;10.00;99.90;;;;;;4975128;28;20039;-81
2023/01/02 01:31:23;;;;;;;4.43;3.50;;;10.00;99.90;;;;;;4986932;28;20050;-81
2023/01/02 01:33:49;;;;;;;4.28;3.28;;;10.00;99.90;;;;;;5006389;28;20489;-80
2023/01/02 01:36:17;;;;;;;4.05;3.65;;;10.00;99.90;;;;;;4973153;28;20042;-80
2023/01/02 01:38:43;;;;;;;4.00;3.60;;;10.10;99.90;;;;;;4967739;28;20062;-80
2023/01/02 01:41:14;;;;;;;5.95;4.18;;;10.10;99.90;;;;;;4988211;28;20069;-80
2023/01/02 01:43:49;;;;;;;7.50;4.20;;;10.00;99.90;;;;;;4970235;28;20564;-80
2023/01/02 01:46:39;;;;;;;5.75;4.65;;;10.10;99.90;;;;;;4986934;28;20113;-82
2023/01/02 01:49:18;;;;;;;8.45;5.15;;;10.10;99.90;;;;;;4972903;28;20054;-80
2023/01/02 01:51:55;;;;;;;6.20;5.15;;;10.10;99.90;;;;;;4988315;28;20499;-81
2023/01/02 01:54:26;;;;;;;6.22;4.85;;;10.10;99.90;;;;;;4989245;28;20125;-80
2023/01/02 01:56:59;;;;;;;9.95;5.22;;;10.10;99.90;;;;;;5003902;28;20050;-82
2023/01/02 01:59:26;;;;;;;7.85;5.78;;;10.60;99.90;;;;;;5006896;28;20042;-81
2023/01/02 02:01:51;;;;;;;7.13;5.28;;;10.80;99.90;;;;;;4970818;28;20054;-81
2023/01/02 02:04:20;;;;;;;9.68;5.32;;;10.10;99.90;;;;;;5007025;28;20038;-81
2023/01/02 02:06:47;;;;;;;7.70;5.82;;;10.70;99.90;;;;;;5000638;28;20074;-81
2023/01/02 02:09:16;;;;;;;9.02;5.95;;;10.20;99.90;;;;;;4953619;28;20430;-81
2023/01/02 02:11:43;;;;;;;9.15;5.78;;;10.30;99.90;;;;;;4988647;28;20398;-82
2023/01/02 02:14:09;;;;;;;9.40;6.43;;;11.00;99.90;;;;;;4988245;28;20042;-81
2023/01/02 02:16:53;;;;;;;7.35;6.07;;;11.70;99.90;;;;;;4973023;28;20046;-80
2023/01/02 02:19:22;;;;;;;;;;;10.30;99.90;;;;;;5005222;28;20050;-80
2023/01/02 02:21:54;;;;;;;9.52;5.93;;;10.30;99.90;;;;;;5004721;28;19926;-80
2023/01/02 02:24:35;;;;;;;6.95;5.68;;;11.40;99.90;;;;;;5005990;28;20053;-80
2023/01/02 02:27:22;;;;;;;6.72;5.40;;;10.30;99.90;;;;;;5007388;28;20088;-80
2023/01/02 02:30:04;;;;;;;10.50;6.32;;;10.40;99.90;;;;;;4986930;28;20050;-80
2023/01/02 02:33:04;;;;;;;7.88;5.93;;;10.30;99.90;;;;;;4991112;28;20046;-81
2023/01/02 02:36:17;;;;;;;9.20;6.60;;;10.40;99.90;;;;;;4987982;28;20053;-80
2023/01/02 02:39:10;;;;;;;10.35;6.13;;;10.40;99.90;;;;;;4968285;28;20077;-81
2023/01/02 02:41:56;;;;;;;9.45;6.45;;;10.40;99.90;;;;;;5006383;28;20153;-80
2023/01/02 02:44:46;;;;;;;7.80;6.40;;;10.40;99.90;;;;;;4988001;28;20093;-81
2023/01/02 02:47:28;;;;;;;9.80;8.18;;;10.40;99.90;;;;;;5005097;28;20077;-81
2023/01/02 02:50:13;;;;;;;7.65;6.82;;;10.40;99.90;;;;;;4985591;28;20046;-80
2023/01/02 02:52:39;;;;;;;12.00;7.25;;;10.50;99.90;;;;;;4973744;28;20038;-81
2023/01/02 02:55:11;;;;;;;8.18;6.93;;;10.50;99.90;;;;;;5005077;28;20395;-80
2023/01/02 02:57:39;;;;;;;10.15;6.95;;;10.50;99.90;;;;;;4980995;28;20065;-81
2023/01/02 03:00:07;;;;;;;8.20;6.68;;;10.50;99.90;;;;;;4984943;28;20124;-82
2023/01/02 03:02:33;;;;;;;9.52;7.60;;;10.50;99.90;;;;;;4988103;28;20038;-81
2023/01/02 03:05:03;;;;;;;12.38;7.15;;;10.80;99.90;;;;;;4968414;28;20398;-81
2023/01/02 03:07:35;;;;;;;8.13;6.88;;;10.00;99.90;;;;;;4987335;28;20497;-80
2023/01/02 03:10:15;;;;;;;12.07;6.88;;;10.10;99.90;;;;;;5000536;28;20133;-79
2023/01/02 03:12:56;;;;;;;10.10;7.88;;;10.50;99.90;;;;;;5000840;28;20129;-79
2023/01/02 03:15:51;;;;;;;7.55;6.65;;;10.50;99.90;;;;;;4970108;28;20080;-80
2023/01/02 03:18:46;;;;;;;9.20;6.13;;;10.50;99.90;;;;;;5003391;28;20042;-79
2023/01/02 03:21:16;;;;;;;8.40;7.03;;;10.50;99.90;;;;;;4985451;28;20646;-79
2023/01/02 03:23:44;;;;;;;7.15;6.53;;;10.60;99.90;;;;;;5005033;28;20096;-80
2023/01/02 03:26:13;;;;;;;10.02;6.63;;;10.60;99.90;;;;;;4992867;28;20050;-80
2023/01/02 03:28:41;;;;;;;7.53;6.72;;;10.50;99.90;;;;;;4972852;28;20038;-80
2023/01/02 03:31:12;;;;;;;12.38;9.43;;;10.60;99.90;;;;;;5010917;28;20088;-80
2023/01/02 03:33:45;;;;;;;13.05;8.00;;;10.60;99.90;;;;;;4994040;28;20038;-80
2023/01/02 03:36:18;;;;;;;10.73;7.78;;;10.60;99.90;;;;;;5008657;28;20085;-80
2023/01/02 03:38:53;;;;;;;15.70;9.30;;;10.60;99.90;;;;;;4974808;28;20093;-80
2023/01/02 03:41:29;;;;;;;14.38;9.02;;;10.70;99.90;;;;;;5008309;28;20109;-80
2023/01/02 03:43:58;;;;;;;15.73;9.15;;;10.90;99.90;;;;;;4993230;28;20054;-81
2023/01/02 03:46:36;;;;;;;13.18;9.00;;;10.70;99.90;;;;;;4994590;28;20061;-81
2023/01/02 03:49:15;;;;;;;16.67;9.10;;;11.80;99.90;;;;;;4960689;28;20050;-80
2023/01/02 03:51:41;;;;;;;14.45;10.00;;;10.70;99.90;;;;;;4978765;28;20050;-80
2023/01/02 03:54:07;;;;;;;15.75;11.40;;;10.70;99.90;;;;;;4994108;28;20065;-80
2023/01/02 03:56:42;;;;;;;18.85;10.27;;;10.70;99.90;;;;;;4994886;28;20153;-80
2023/01/02 03:59:33;;;;;;;19.58;10.90;;;10.70;99.90;;;;;;4993560;28;20077;-81
2023/01/02 04:02:15;;;;;;;20.13;10.10;;;10.70;99.90;;;;;;5014589;28;20054;-79
2023/01/02 04:04:52;;;;;;;18.90;10.13;;;10.70;99.90;;;;;;4993504;28;20072;-80
2023/01/02 04:07:43;;;;;;;18.75;10.57;;;10.70;99.90;;;;;;5014577;28;20117;-79
2023/01/02 04:10:11;;;;;;;15.18;10.93;;;10.70;99.90;;;;;;4990473;28;20050;-80
2023/01/02 04:12:40;;;;;;;17.23;11.00;;;11.50;99.90;;;;;;4994267;28;20077;-80
2023/01/02 04:15:12;;;;;;;18.52;10.25;;;10.70;99.90;;;;;;4960396;28;20043;-81
2023/01/02 04:17:43;;;;;;;20.98;11.52;;;10.70;99.90;;;;;;5009573;28;20061;-80
2023/01/02 04:20:39;;;;;;;17.95;11.13;;;10.70;99.90;;;;;;4993427;28;20053;-81
2023/01/02 04:23:11;;;;;;;18.17;12.15;;;10.80;99.90;;;;;;4960441;28;20154;-80
2023/01/02 04:25:46;;;;;;;19.17;10.85;;;10.70;99.90;;;;;;4992411;28;20046;-79
2023/01/02 04:28:16;;;;;;;;;;;10.70;99.90;;;;;;5011149;28;20438;-80
2023/01/02 04:30:47;;;;;;;17.27;9.90;;;10.80;99.90;;;;;;4977244;28;19968;-80
2023/01/02 04:33:15;;;;;;;17.70;11.02;;;10.70;99.90;;;;;;4992048;28;20073;-81
2023/01/02 04:35:41;;;;;;;16.25;9.77;;;11.60;99.90;;;;;;4992675;28;20101;-81
2023/01/02 04:38:09;;;;;;;18.02;11.45;;;10.70;99.90;;;;;;4988676;28;20041;-81
2023/01/02 04:40:36;;;;;;;21.77;11.23;;;10.70;99.90;;;;;;4956088;28;20402;-80
2023/01/02 04:43:11;;;;;;;16.00;10.90;;;10.80;99.90;;;;;;4988617;28;20486;-80
2023/01/02 04:45:36;;;;;;;;;;;10.70;99.90;;;;;;4989713;28;20054;-80
2023/01/02 04:48:05;;;;;;;16.50;9.90;;;11.00;99.90;;;;;;5021728;28;19922;-81
2023/01/02 04:50:31;;;;;;;12.90;8.90;;;10.70;99.90;;;;;;5006140;28;20042;-79
2023/01/02 04:52:56;;;;;;;11.52;8.07;;;11.30;99.90;;;;;;4987398;28;20045;-81
2023/01/02 04:55:22;;;;;;;11.90;8.30;;;10.80;99.90;;;;;;4974288;28;20041;-79
2023/01/02 04:57:47;;;;;;;10.25;8.25;;;10.90;99.90;;;;;;4972880;28;20042;-80
2023/01/02 05:00:14;;;;;;;11.82;8.27;;;10.80;99.90;;;;;;4991084;28;20100;-79
2023/01/02 05:02:40;;;;;;;10.80;8.15;;;10.80;99.90;;;;;;4988147;28;20031;-80
2023/01/02 05:05:07;;;;;;;11.10;7.38;;;10.80;99.90;;;;;;4974839;28;20456;-80
2023/01/02 05:07:37;;;;;;;13.05;7.38;;;10.80;99.90;;;;;;4976454;28;20444;-81
2023/01/02 05:10:04;;;;;;;12.15;8.40;;;11.10;99.90;;;;;;4989371;28;20084;-81
2023/01/02 05:12:36;;;;;;;8.20;7.38;;;10.80;99.90;;;;;;4986922;28;20332;-81
2023/01/02 05:15:07;;;;;;;13.60;9.65;;;10.80;99.90;;;;;;5008191;28;20108;-81
2023/01/02 05:17:37;;;;;;;14.95;10.27;;;10.70;99.90;;;;;;4987590;28;20101;-82
2023/01/02 05:20:05;;;;;;;11.18;8.50;;;10.70;99.90;;;;;;4991923;28;20178;-81
2023/01/02 05:25:15;;;;;;;10.82;8.57;;;10.90;99.90;;;;;;4987611;28;20042;-82
2023/01/02 05:27:44;;;;;;;11.20;8.20;;;10.70;99.90;;;;;;5005547;28;20197;-81
2023/01/02 05:30:10;;;;;;;12.02;7.75;;;10.70;99.90;;;;;;5006873;28;20046;-81
2023/01/02 05:32:36;;;;;;;13.60;7.80;;;10.70;99.90;;;;;;5007582;28;20034;-82
2023/01/02 05:35:02;;;;;;;10.23;7.88;;;10.70;99.90;;;;;;4987306;28;20081;-81
2023/01/02 05:37:29;;;;;;;10.65;8.13;;;10.70;99.90;;;;;;5004159;28;20046;-80
2023/01/02 05:39:55;;;;;;;8.75;7.18;;;10.70;99.90;;;;;;5002173;28;20050;-81
2023/01/02 05:42:20;;;;;;;8.40;7.32;;;10.70;99.90;;;;;;4988750;28;20042;-80
2023/01/02 05:44:46;;;;;;;9.60;8.23;;;10.80;99.90;;;;;;4987834;28;20100;-81
2023/01/02 05:47:12;;;;;;;14.02;9.43;;;11.70;99.90;;;;;;4988901;28;20069;-81
2023/01/02 05:49:39;;;;;;;9.05;6.60;;;10.80;99.90;;;;;;5005007;28;20114;-80
2023/01/02 05:52:04;;;;;;;8.25;7.28;;;10.80;99.90;;;;;;4985197;28;20044;-81
2023/01/02 05:54:31;;;;;;;7.30;6.40;;;12.00;99.90;;;;;;5004151;28;20038;-80
2023/01/02 05:56:57;;;;;;;7.47;6.38;;;10.80;99.90;;;;;;4972109;28;20125;-81
2023/01/02 05:59:22;;;;;;;8.93;6.60;;;10.80;99.90;;;;;;4971771;28;20133;-80
2023/01/02 06:01:48;;;;;;;7.38;6.05;;;10.70;99.90;;;;;;4971806;28;20133;-80
2023/01/02 06:04:14;;;;;;;7.10;5.68;;;11.60;99.90;;;;;;4986228;28;20035;-80
2023/01/02 06:06:39;;;;;;;6.25;5.65;;;10.80;99.90;;;;;;5004497;28;20695;-80
2023/01/02 06:09:07;;;;;;;7.43;5.60;;;10.80;99.90;;;;;;4971104;28;20105;-80
2023/01/02 06:11:33;;;;;;;5.05;4.55;;;11.70;99.90;;;;;;4989294;28;20197;-80
2023/01/02 06:13:59;;;;;;;4.53;4.15;;;10.80;99.90;;;;;;4988958;28;20042;-80
2023/01/02 06:16:25;;;;;;;3.45;2.97;;;10.90;99.90;;;;;;4979365;28;20061;-80
2023/01/02 06:18:51;;;;;;;2.78;2.60;;;12.20;99.90;;;;;;4989239;28;20468;-79
2023/01/02 06:21:18;;;;;;;2.17;2.00;;;10.90;99.90;;;;;;4988658;28;20034;-81
2023/01/02 06:23:44;;;;;;;2.35;2.25;;;10.90;99.90;;;;;;4989218;28;20055;-80
2023/01/02 06:26:14;;;;;;;2.10;2.00;;;10.90;99.90;;;;;;4970777;28;20042;-80
2023/01/02 06:28:41;;;;;;;2.35;2.20;;;10.90;99.90;;;;;;4986419;28;20046;-81
2023/01/02 06:31:09;;;;;;;2.80;2.60;;;12.00;99.90;;;;;;4990648;28;20050;-81
2023/01/02 06:33:35;;;;;;;2.60;2.40;;;10.90;99.90;;;;;;4962851;28;20506;-80
2023/01/02 06:36:17;;;;;;;2.90;2.70;;;12.30;99.90;;;;;;4987277;28;20101;-80
2023/01/02 06:38:44;;;;;;;2.10;2.00;;;11.10;99.90;;;;;;4968815;28;20057;-79
2023/01/02 06:41:10;;;;;;;2.83;2.65;;;10.90;99.90;;;;;;4969467;28;20053;-79
2023/01/02 06:43:41;;;;;;;3.67;3.38;;;10.90;99.90;;;;;;4970197;28;20073;-79
2023/01/02 06:46:08;;;;;;;3.75;3.45;;;10.80;99.90;;;;;;4970433;28;20054;-80
2023/01/02 06:48:34;;;;;;;4.28;3.90;;;11.30;99.90;;;;;;5001695;28;20030;-79
2023/01/02 06:51:03;;;;;;;5.35;4.85;;;11.90;99.90;;;;;;4969855;28;20046;-80
2023/01/02 06:53:28;;;;;;;6.35;4.95;;;11.90;99.90;;;;;;5003974;28;20048;-80
2023/01/02 06:55:56;;;;;;;3.95;3.65;;;10.80;99.90;;;;;;4986219;28;20066;-80
2023/01/02 06:58:23;;;;;;;3.95;3.65;;;11.70;99.90;;;;;;4970816;28;20046;-80
2023/01/02 07:00:49;;;;;;;4.03;3.72;;;10.70;99.90;;;;;;4971240;28;20243;-80
2023/01/02 07:03:15;;;;;;;3.63;3.33;;;10.50;99.90;;;;;;5004145;28;20046;-80
2023/01/02 07:05:41;;;;;;;4.47;4.18;;;11.50;99.90;;;;;;4985191;28;20093;-80
2023/01/02 07:08:07;;;;;;;5.03;4.63;;;11.40;99.90;;;;;;5000369;28;20052;-80
2023/01/02 07:10:33;;;;;;;4.55;3.95;;;10.60;99.90;;;;;;4987114;28;20046;-80
2023/01/02 07:12:59;;;;;;;5.40;4.35;;;11.60;99.90;;;;;;5001862;28;20046;-80
2023/01/02 07:15:24;;;;;;;4.75;4.30;;;10.90;99.90;;;;;;4986735;28;20042;-80
2023/01/02 07:17:50;;;;;;;3.75;3.45;;;10.10;99.90;;;;;;4985697;28;20035;-80
2023/01/02 07:20:16;;;;;;;5.28;4.38;;;10.80;99.90;;;;;;5003291;28;20073;-80
2023/01/02 07:22:41;;;;;;;4.20;3.03;;;10.50;99.90;;;;;;5001817;28;20050;-80
2023/01/02 07:25:07;;;;;;;3.55;2.45;;;10.60;99.90;;;;;;4967181;28;20478;-80
2023/01/02 07:27:33;;;;;;;4.47;3.10;;;9.60;99.90;;;;;;4971719;28;20129;-79
2023/01/02 07:29:59;;;;;;;4.65;2.97;;;9.40;99.90;;;;;;4985736;28;20469;-80
2023/01/02 07:32:25;;;;;;;4.93;1.40;;;9.90;99.90;;;;;;4969744;28;20130;-81
2023/01/02 07:34:50;;;;;;;1.95;1.15;;;9.70;99.90;;;;;;4987624;28;20494;-81
2023/01/02 07:37:16;;;;;;;1.63;0.93;;;9.10;99.90;;;;;;4990197;28;20403;-80
2023/01/02 07:39:42;;;;;;;0.85;0.43;;;10.00;99.90;;;;;;4994379;28;20502;-80
2023/01/02 07:42:07;;;;;;;1.40;0.80;;;9.00;99.90;;;;;;5010143;28;20554;-80
2023/01/02 07:44:34;;;;;;;1.75;0.28;;;9.10;99.90;;;;;;5011228;28;20054;-81
2023/01/02 07:47:01;;;;;;;0.85;0.25;;;8.80;99.90;;;;;;4962954;28;20081;-80
2023/01/02 07:49:26;;;;;;;0.40;0.10;;;8.80;99.90;;;;;;4986949;28;20037;-80
2023/01/02 07:51:52;;;;;;;0.65;0.30;;;8.70;99.90;;;;;;4973284;28;20466;-80
2023/01/02 07:54:18;;;;;;;3.30;0.40;;;9.70;99.90;;;;;;4988119;28;20046;-80
2023/01/02 07:56:43;;;;;;;1.73;0.60;;;8.60;99.90;;;;;;4989283;28;20498;-81
2023/01/02 07:59:09;;;;;;;3.70;0.35;;;8.50;99.90;;;;;;4974327;28;20396;-80
2023/01/02 08:01:35;;;;;;;3.47;1.58;;;8.40;99.90;;;;;;5002968;28;20051;-80
2023/01/02 08:04:00;;;;;;;4.88;2.53;;;8.40;99.90;;;;;;4971073;28;20047;-80
2023/01/02 08:06:26;;;;;;;3.47;0.80;;;9.90;99.90;;;;;;4959523;28;20082;-80
2023/01/02 08:08:52;;;;;;;1.35;0.40;;;8.80;99.90;;;;;;4988704;28;20064;-79
2023/01/02 08:11:20;;;;;;;0.70;0.32;;;8.30;99.90;;;;;;4969862;28;20088;-79
2023/01/02 08:13:46;;;;;;;2.42;0.50;;;8.20;99.90;;;;;;5001375;28;20043;-79
2023/01/02 08:16:15;;;;;;;1.40;0.47;;;8.20;99.90;;;;;;4970872;28;20038;-79
2023/01/02 08:18:41;;;;;;;3.88;1.20;;;8.90;99.90;;;;;;4988130;28;20093;-79
2023/01/02 08:21:07;;;;;;;3.20;1.85;;;8.40;99.90;;;;;;4967356;28;20050;-79
2023/01/02 08:23:33;;;;;;;3.88;2.38;;;8.10;99.90;;;;;;4990015;28;20039;-80
2023/01/02 08:26:03;;;;;;;0.95;0.82;;;8.10;99.90;;;;;;4997513;28;20438;-80
2023/01/02 08:28:30;;;;;;;3.22;1.23;;;8.10;99.90;;;;;;5010472;28;20042;-81
2023/01/02 08:30:56;;;;;;;1.50;0.55;;;8.10;99.90;;;;;;4970685;28;20406;-79
2023/01/02 08:33:21;;;;;;;1.23;0.80;;;8.20;99.90;;;;;;4996279;28;20042;-80
2023/01/02 08:35:47;;;;;;;2.05;1.23;;;8.20;99.90;;;;;;4969072;28;20078;-80
2023/01/02 08:38:13;;;;;;;1.52;1.05;;;8.10;99.90;;;;;;5011848;28;20033;-80
2023/01/02 08:40:39;;;;;;;3.70;1.55;;;8.10;99.90;;;;;;5015445;28;20398;-80
2023/01/02 08:43:08;;;;;;;5.03;1.58;;;8.10;99.90;;;;;;4997649;28;20498;-80
2023/01/02 08:45:36;;;;;;;1.58;0.90;;;8.10;99.90;;;;;;5003730;28;20058;-80
2023/01/02 08:48:02;;;;;;;2.60;0.90;;;8.10;99.90;;;;;;5009734;28;20485;-81
2023/01/02 08:50:27;;;;;;;1.65;0.77;;;8.10;99.90;;;;;;5011562;28;20046;-81
2023/01/02 08:52:53;;;;;;;2.15;0.70;;;8.10;99.90;;;;;;4976580;28;20082;-82
2023/01/02 08:55:19;;;;;;;0.45;0.45;;;8.10;99.90;;;;;;5002215;28;20046;-80
2023/01/02 08:57:44;;;;;;;2.28;1.52;;;8.10;99.90;;;;;;4983637;28;20112;-80
2023/01/02 09:00:11;;;;;;;2.67;1.13;;;8.40;99.90;;;;;;4974894;28;20054;-80
2023/01/02 09:02:37;;;;;;;3.00;1.13;;;8.10;99.90;;;;;;4998756;28;20045;-80
2023/01/02 09:05:03;;;;;;;3.13;0.85;;;8.30;99.90;;;;;;4993641;28;20046;-80
2023/01/02 09:07:31;;;;;;;6.45;1.10;;;8.10;99.90;;;;;;5009725;28;20053;-78
2023/01/02 09:09:57;;;;;;;2.67;1.20;;;8.10;99.90;;;;;;4981654;28;20046;-80
2023/01/02 09:12:23;;;;;;;3.78;1.10;;;8.00;99.90;;;;;;4997054;28;20409;-79
2023/01/02 09:14:49;;;;;;;4.43;1.20;;;8.00;99.90;;;;;;5000659;28;20034;-80
2023/01/02 09:17:14;;;;;;;1.55;1.10;;;8.00;99.90;;;;;;5001724;28;20046;-83
2023/01/02 09:19:41;;;;;;;3.25;1.40;;;8.40;99.90;;;;;;4967742;28;20419;-83
2023/01/02 09:22:08;;;;;;;2.58;1.15;;;8.00;99.90;;;;;;4979610;28;20046;-80
2023/01/02 09:24:34;;;;;;;3.25;1.52;;;9.50;99.90;;;;;;4987731;28;20050;-81
2023/01/02 09:26:59;;;;;;;4.13;1.60;;;9.00;99.90;;;;;;4973595;28;20065;-80
2023/01/02 09:29:25;;;;;;;2.92;1.15;;;8.00;99.90;;;;;;4973511;28;20034;-80
2023/01/02 09:31:51;;;;;;;3.78;1.00;;;8.00;99.90;;;;;;4972689;28;20100;-79
2023/01/02 09:34:16;;;;;;;2.45;1.40;;;9.00;99.90;;;;;;4992805;28;20030;-79
2023/01/02 09:36:42;;;;;;;2.78;1.85;;;9.00;99.90;;;;;;4973572;28;20047;-81
2023/01/02 09:39:08;;;;;;;2.42;1.35;;;8.00;99.90;;;;;;4959689;28;20085;-80
2023/01/02 09:41:42;;;;;;;6.82;1.52;;;9.00;99.90;;;;;;4959178;28;20109;-79
2023/01/02 09:44:27;;;;;;;3.22;1.23;;;8.00;99.90;;;;;;4982421;28;20048;-79
2023/01/02 09:47:09;;;;;;;5.05;2.55;;;9.10;99.90;;;;;;5013042;28;20054;-81
2023/01/02 09:49:50;;;;;;;6.05;1.73;;;8.00;99.90;;;;;;5007791;28;20486;-83
2023/01/02 09:52:20;;;;;;;4.47;2.38;;;9.00;99.90;;;;;;4980357;28;20050;-79
2023/01/02 09:54:46;;;;;;;3.13;1.67;;;8.00;99.90;;;;;;4982062;28;20124;-81
2023/01/02 09:57:21;;;;;;;4.60;2.22;;;8.10;99.90;;;;;;4992665;28;20193;-79
2023/01/02 09:59:49;;;;;;;;;;;8.10;99.90;;;;;;4997195;28;20680;-85
2023/01/02 10:02:40;;;;;;;7.57;4.10;;;8.30;99.90;;;;;;4987998;28;20067;-78
2023/01/02 10:05:31;;;;;;;2.83;2.13;;;8.00;99.90;;;;;;4981905;28;20098;-78
2023/01/02 10:08:02;;;;;;;4.32;2.58;;;8.10;99.90;;;;;;4989680;28;20038;-78
2023/01/02 10:10:43;;;;;;;6.50;2.80;;;8.10;99.90;;;;;;4976136;28;20129;-78
2023/01/02 10:13:20;;;;;;;4.72;2.22;;;8.10;99.90;;;;;;5012802;28;20054;-78
2023/01/02 10:15:51;;;;;;;3.38;1.90;;;8.00;99.90;;;;;;5013368;28;20034;-78
2023/01/02 10:18:39;;;;;;;5.22;2.53;;;8.00;99.90;;;;;;5005259;28;20046;-78
2023/01/02 10:21:07;;;;;;;5.55;2.58;;;8.00;99.90;;;;;;4989456;28;20049;-78
2023/01/02 10:23:45;;;;;;;4.63;1.83;;;8.00;99.90;;;;;;4998715;28;20538;-78
2023/01/02 10:26:21;;;;;;;2.95;1.63;;;8.00;99.90;;;;;;4995512;28;20070;-78
2023/01/02 10:28:52;;;;;;;3.88;1.10;;;8.00;99.90;;;;;;5014074;28;20113;-78
2023/01/02 10:31:35;;;;;;;1.65;0.93;;;8.10;99.90;;;;;;5012512;28;20050;-78
2023/01/02 10:34:03;;;;;;;3.00;0.80;;;8.00;99.90;;;;;;4958402;28;20125;-77
2023/01/02 10:36:30;;;;;;;2.65;1.05;;;8.00;99.90;;;;;;4989240;28;20043;-78
2023/01/02 10:39:00;;;;;;;4.60;1.45;;;8.00;99.90;;;;;;4972924;28;20104;-82
2023/01/02 10:41:27;;;;;;;5.15;1.38;;;8.10;99.90;;;;;;4988258;28;20462;-83
2023/01/02 10:44:02;;;;;;;2.47;0.88;;;8.10;99.90;;;;;;4973913;28;20152;-79
2023/01/02 10:46:35;;;;;;;1.15;0.60;;;8.10;99.90;;;;;;4958324;28;20073;-80
2023/01/02 10:49:06;;;;;;;1.85;1.00;;;9.10;99.90;;;;;;4988295;28;20046;-80
2023/01/02 10:51:36;;;;;;;2.45;0.90;;;8.20;99.90;;;;;;4988262;28;20050;-80
2023/01/02 10:54:03;;;;;;;3.30;0.95;;;8.60;99.90;;;;;;5000772;28;20042;-79
2023/01/02 10:56:31;;;;;;;4.45;1.33;;;8.20;99.90;;;;;;4970600;28;20431;-80
2023/01/02 10:58:57;;;;;;;2.95;1.80;;;9.70;99.90;;;;;;4983318;28;20046;-79
2023/01/02 11:01:24;;;;;;;4.75;1.30;;;9.20;99.90;;;;;;4959740;28;20057;-80
2023/01/02 11:03:56;;;;;;;4.15;1.55;;;8.20;99.90;;;;;;4972400;28;20058;-79
2023/01/02 11:06:30;;;;;;;6.20;1.98;;;8.20;99.90;;;;;;4988484;28;20097;-80
2023/01/02 11:09:01;;;;;;;8.25;1.45;;;8.20;99.90;;;;;;4972324;28;20050;-79
2023/01/02 11:11:31;;;;;;;7.85;1.80;;;8.20;99.90;;;;;;5008301;28;20042;-80
2023/01/02 11:14:07;;;;;;;5.07;1.45;;;9.70;99.90;;;;;;4986788;28;20038;-80
2023/01/02 11:16:37;;;;;;;8.35;1.52;;;8.30;99.90;;;;;;4987139;28;20053;-80
2023/01/02 11:19:06;;;;;;;5.68;1.30;;;8.30;99.90;;;;;;4973061;28;20046;-81
2023/01/02 11:21:34;;;;;;;2.47;1.23;;;8.30;99.90;;;;;;5002142;28;20138;-81
2023/01/02 11:24:24;;;;;;;5.03;1.25;;;8.50;99.90;;;;;;4994704;28;20042;-80
2023/01/02 11:26:50;;;;;;;7.47;1.80;;;8.30;99.90;;;;;;4987867;28;20065;-80
2023/01/02 11:29:31;;;;;;;4.72;1.50;;;8.30;99.90;;;;;;5015190;28;20392;-80
2023/01/02 11:32:00;;;;;;;4.75;1.50;;;8.40;99.90;;;;;;4988788;28;20042;-80
2023/01/02 11:34:37;;;;;;;4.88;1.42;;;9.00;99.90;;;;;;4995918;28;20129;-81
2023/01/02 11:37:24;;;;;;;6.43;1.80;;;8.40;99.90;;;;;;5011416;28;20050;-80
2023/01/02 11:40:00;;;;;;;4.05;1.75;;;10.00;99.90;;;;;;4971407;28;20055;-80
2023/01/02 11:45:25;;;;;;;5.82;2.13;;;8.50;99.90;;;;;;5004961;28;20059;-80
2023/01/02 11:47:51;;;;;;;5.35;1.50;;;8.80;99.90;;;;;;4999461;28;20054;-81
2023/01/02 11:50:49;;;;;;;6.47;1.77;;;9.90;99.90;;;;;;4983008;28;20478;-80
2023/01/02 11:53:23;;;;;;;6.28;1.67;;;10.10;99.90;;;;;;4964462;28;20046;-81
2023/01/02 11:55:58;;;;;;;10.15;2.33;;;8.50;99.90;;;;;;4993614;28;20034;-81
2023/01/02 11:58:36;;;;;;;8.13;1.55;;;8.50;99.90;;;;;;4998447;28;20054;-81
2023/01/02 12:01:28;;;;;;;5.38;1.08;;;8.60;99.90;;;;;;4991917;28;20052;-81
2023/01/02 12:03:55;;;;;;;8.52;1.40;;;8.50;99.90;;;;;;5013729;28;20124;-81
2023/01/02 12:06:23;;;;;;;8.40;3.17;;;9.90;99.90;;;;;;4992244;28;20562;-82
2023/01/02 12:08:58;;;;;;;9.38;2.30;;;8.50;99.90;;;;;;4992538;28;20074;-80
2023/01/02 12:11:55;;;;;;;7.15;1.35;;;8.50;99.90;;;;;;4990150;28;20049;-81
2023/01/02 12:14:26;;;;;;;7.88;1.33;;;8.50;99.90;;;;;;5009234;28;20445;-80
2023/01/02 12:17:01;;;;;;;8.15;1.80;;;8.50;99.90;;;;;;5010698;28;20392;-80
2023/01/02 12:19:44;;;;;;;11.13;1.80;;;9.40;99.90;;;;;;4991144;28;20035;-80
2023/01/02 12:22:27;;;;;;;13.35;1.92;;;8.50;99.90;;;;;;4990709;28;20546;-80
2023/01/02 12:24:59;;;;;;;7.57;1.25;;;8.60;99.90;;;;;;5003969;28;20507;-80
2023/01/02 12:27:51;;;;;;;6.97;0.95;;;9.30;99.90;;;;;;4991942;28;20046;-80
2023/01/02 12:30:21;;;;;;;8.52;1.40;;;8.50;99.90;;;;;;5008477;28;20351;-80
2023/01/02 12:32:58;;;;;;;9.43;1.38;;;9.40;99.90;;;;;;5007663;28;20102;-80
2023/01/02 12:35:46;;;;;;;7.97;1.23;;;8.50;99.90;;;;;;5005943;28;20125;-80
2023/01/02 12:38:27;;;;;;;9.00;1.20;;;8.60;99.90;;;;;;4972875;28;20054;-81
2023/01/02 12:41:11;;;;;;;9.05;1.00;;;10.10;99.90;;;;;;5003593;28;20046;-80
2023/01/02 12:44:03;;;;;;;10.98;1.23;;;8.80;99.90;;;;;;4990230;28;20048;-79
2023/01/02 12:46:34;;;;;;;9.45;1.05;;;8.60;99.90;;;;;;4985259;28;20042;-80
2023/01/02 12:49:31;;;;;;;10.60;2.25;;;8.60;99.90;;;;;;4991264;28;20043;-80
2023/01/02 12:52:18;;;;;;;9.90;1.48;;;8.60;99.90;;;;;;4970683;28;20125;-80
2023/01/02 12:54:46;;;;;;;7.80;1.63;;;8.60;99.90;;;;;;4953537;28;20073;-80
2023/01/02 12:57:27;;;;;;;10.50;1.80;;;8.60;99.90;;;;;;4978161;28;20047;-79
2023/01/02 13:00:20;;;;;;;10.55;1.75;;;8.60;99.90;;;;;;4956233;28;20113;-79
2023/01/02 13:03:04;;;;;;;15.55;2.42;;;8.70;99.90;;;;;;4987199;28;20515;-80
2023/01/02 13:05:50;;;;;;;12.80;1.70;;;8.60;99.90;;;;;;4990168;28;20113;-80
2023/01/02 13:08:21;;;;;;;9.27;1.92;;;8.70;99.90;;;;;;4970037;28;20094;-80
2023/01/02 13:10:47;;;;;;;10.43;1.50;;;9.60;99.90;;;;;;4987233;28;20109;-79
2023/01/02 13:13:14;;;;;;;10.40;1.67;;;9.90;99.90;;;;;;4952596;28;20406;-79
2023/01/02 13:15:46;;;;;;;7.70;1.17;;;9.90;99.90;;;;;;4971882;28;20035;-79